createdAt,value
2019-02-07T00:00:58.863Z,100.00
2019-02-07T00:02:04.516Z,100.00
2019-02-07T00:03:10.680Z,99.95
2019-02-07T00:04:16.267Z,100.00
2019-02-07T00:05:21.894Z,100.00
2019-02-07T00:06:28.063Z,100.00
2019-02-07T00:07:34.012Z,100.00
2019-02-07T00:08:40.053Z,99.43
2019-02-07T00:09:45.667Z,98.56
2019-02-07T00:10:51.659Z,98.65
2019-02-07T00:11:57.675Z,98.85
2019-02-07T00:13:03.650Z,99.03
2019-02-07T00:14:09.293Z,99.11
2019-02-07T00:15:14.561Z,99.27
2019-02-07T00:16:20.173Z,99.47
2019-02-07T00:17:25.216Z,99.60
2019-02-07T00:18:30.929Z,100.00
2019-02-07T00:19:37.014Z,100.00
2019-02-07T00:20:42.696Z,100.00
2019-02-07T00:21:49.284Z,100.00
2019-02-07T00:22:55.961Z,99.51
2019-02-07T00:24:01.976Z,99.31
2019-02-07T00:25:07.251Z,98.65
2019-02-07T00:26:12.835Z,98.26
2019-02-07T00:27:18.827Z,98.33
2019-02-07T00:28:24.790Z,98.03
2019-02-07T00:29:30.396Z,97.88
2019-02-07T00:30:35.984Z,97.92
2019-02-07T00:31:41.969Z,97.94
2019-02-07T00:32:47.279Z,97.88
2019-02-07T00:33:53.255Z,97.95
2019-02-07T00:34:59.185Z,98.34
2019-02-07T00:36:04.568Z,98.55
2019-02-07T00:37:10.529Z,98.17
2019-02-07T00:38:16.504Z,98.35
2019-02-07T00:39:22.472Z,98.55
2019-02-07T00:40:28.546Z,98.08
2019-02-07T00:41:34.554Z,97.75
2019-02-07T00:42:41.307Z,97.70
2019-02-07T00:43:47.746Z,98.24
2019-02-07T00:44:53.688Z,98.66
2019-02-07T00:45:59.715Z,99.57
2019-02-07T00:47:05.733Z,99.99
2019-02-07T00:48:11.754Z,100.00
2019-02-07T00:49:17.880Z,100.00
2019-02-07T00:50:23.665Z,99.31
2019-02-07T00:51:29.633Z,98.49
2019-02-07T00:52:35.827Z,97.53
2019-02-07T00:53:41.753Z,96.88
2019-02-07T00:54:47.346Z,97.06
2019-02-07T00:55:53.349Z,97.56
2019-02-07T00:56:59.342Z,98.72
2019-02-07T00:58:04.596Z,99.55
2019-02-07T00:59:10.623Z,100.00
2019-02-07T01:00:26.749Z,100.00
2019-02-07T01:01:32.513Z,100.00
2019-02-07T01:02:38.116Z,100.00
2019-02-07T01:03:43.749Z,100.00
2019-02-07T01:04:49.645Z,100.00
2019-02-07T01:05:55.258Z,100.00
2019-02-07T01:07:01.231Z,100.00
2019-02-07T01:08:06.974Z,100.00
2019-02-07T01:09:12.619Z,100.00
2019-02-07T01:10:20.697Z,100.00
2019-02-07T01:11:25.943Z,100.00
2019-02-07T01:12:31.201Z,100.00
2019-02-07T01:13:36.794Z,100.00
2019-02-07T01:14:42.848Z,100.00
2019-02-07T01:15:48.782Z,99.83
2019-02-07T01:16:54.787Z,99.77
2019-02-07T01:18:00.458Z,99.67
2019-02-07T01:19:05.774Z,99.78
2019-02-07T01:20:11.673Z,99.30
2019-02-07T01:21:17.340Z,98.96
2019-02-07T01:22:22.950Z,98.85
2019-02-07T01:23:28.901Z,98.44
2019-02-07T01:24:34.228Z,98.74
2019-02-07T01:25:40.588Z,99.46
2019-02-07T01:26:47.080Z,99.31
2019-02-07T01:27:52.098Z,99.22
2019-02-07T01:28:58.075Z,99.47
2019-02-07T01:30:03.140Z,99.83
2019-02-07T01:31:09.048Z,99.98
2019-02-07T01:32:15.035Z,100.00
2019-02-07T01:33:20.640Z,100.00
2019-02-07T01:34:26.692Z,100.00
2019-02-07T01:35:32.734Z,100.00
2019-02-07T01:36:38.701Z,100.00
2019-02-07T01:37:44.637Z,100.00
2019-02-07T01:38:50.609Z,100.00
2019-02-07T01:39:56.662Z,100.00
2019-02-07T01:41:02.605Z,100.00
2019-02-07T01:42:08.621Z,100.00
2019-02-07T01:43:14.239Z,100.00
2019-02-07T01:44:19.867Z,100.00
2019-02-07T01:45:25.205Z,100.00
2019-02-07T01:46:31.203Z,100.00
2019-02-07T01:47:37.168Z,100.00
2019-02-07T01:48:43.164Z,100.00
2019-02-07T01:49:49.230Z,100.00
2019-02-07T01:50:54.571Z,100.00
2019-02-07T01:52:00.585Z,100.00
2019-02-07T01:53:06.204Z,100.00
2019-02-07T01:54:11.838Z,100.00
2019-02-07T01:55:17.966Z,100.00
2019-02-07T01:56:23.884Z,100.00
2019-02-07T01:57:29.821Z,100.00
2019-02-07T01:58:35.852Z,100.00
2019-02-07T01:59:41.796Z,100.00
2019-02-07T02:00:48.395Z,100.00
2019-02-07T02:01:53.363Z,100.00
2019-02-07T02:02:59.322Z,100.00
2019-02-07T02:04:04.986Z,100.00
2019-02-07T02:05:10.341Z,100.00
2019-02-07T02:06:15.894Z,100.00
2019-02-07T02:07:21.883Z,100.00
2019-02-07T02:08:28.590Z,100.00
2019-02-07T02:09:34.878Z,100.00
2019-02-07T02:10:40.951Z,100.00
2019-02-07T02:11:46.910Z,100.00
2019-02-07T02:12:52.166Z,100.00
2019-02-07T02:13:58.106Z,99.69
2019-02-07T02:15:03.402Z,100.00
2019-02-07T02:16:09.386Z,99.80
2019-02-07T02:17:15.344Z,99.85
2019-02-07T02:18:22.024Z,99.75
2019-02-07T02:19:27.977Z,99.92
2019-02-07T02:20:33.646Z,99.85
2019-02-07T02:21:38.936Z,99.61
2019-02-07T02:22:44.673Z,99.09
2019-02-07T02:23:50.612Z,99.29
2019-02-07T02:24:56.594Z,99.82
2019-02-07T02:26:02.255Z,100.00
2019-02-07T02:27:08.213Z,100.00
2019-02-07T02:28:14.249Z,100.00
2019-02-07T02:29:19.916Z,100.00
2019-02-07T02:30:30.012Z,100.00
2019-02-07T02:31:35.605Z,100.00
2019-02-07T02:32:41.661Z,100.00
2019-02-07T02:33:47.280Z,100.00
2019-02-07T02:34:53.250Z,100.00
2019-02-07T02:35:59.238Z,100.00
2019-02-07T02:37:04.565Z,99.42
2019-02-07T02:38:10.616Z,98.35
2019-02-07T02:39:16.585Z,98.19
2019-02-07T02:40:22.208Z,98.47
2019-02-07T02:41:27.983Z,99.03
2019-02-07T02:42:33.910Z,99.53
2019-02-07T02:43:39.870Z,100.00
2019-02-07T02:44:45.816Z,100.00
2019-02-07T02:45:51.834Z,100.00
2019-02-07T02:46:57.837Z,100.00
2019-02-07T02:48:03.113Z,100.00
2019-02-07T02:49:08.751Z,100.00
2019-02-07T02:50:14.052Z,100.00
2019-02-07T02:51:21.268Z,100.00
2019-02-07T02:52:27.152Z,100.00
2019-02-07T02:53:33.230Z,100.00
2019-02-07T02:54:39.061Z,100.00
2019-02-07T02:55:44.656Z,100.00
2019-02-07T02:56:50.599Z,100.00
2019-02-07T02:57:56.586Z,100.00
2019-02-07T02:59:02.513Z,100.00
2019-02-07T03:00:07.596Z,100.00
2019-02-07T03:02:49.060Z,100.00
2019-02-07T03:03:57.357Z,100.00
2019-02-07T03:05:04.044Z,100.00
2019-02-07T03:06:09.158Z,100.00
2019-02-07T03:07:18.556Z,100.00
2019-02-07T03:08:38.914Z,100.00
2019-02-07T03:09:44.336Z,100.00
2019-02-07T03:12:40.069Z,100.00
2019-02-07T03:14:04.885Z,100.00
2019-02-07T03:15:28.626Z,100.00
2019-02-07T03:16:39.477Z,100.00
2019-02-07T03:29:53.597Z,100.00
2019-02-07T03:31:04.911Z,100.00
2019-02-07T03:32:16.262Z,100.00
2019-02-07T03:33:22.820Z,100.00
2019-02-07T03:34:38.521Z,100.00
2019-02-07T03:35:45.223Z,100.00
2019-02-07T03:37:06.646Z,100.00
2019-02-07T03:38:18.078Z,100.00
2019-02-07T03:39:24.831Z,100.00
2019-02-07T03:40:45.459Z,100.00
2019-02-07T03:43:41.885Z,100.00
2019-02-07T03:46:34.820Z,100.00
2019-02-07T03:47:59.628Z,100.00
2019-02-07T03:49:21.936Z,100.00
2019-02-07T03:50:28.193Z,100.00
2019-02-07T03:51:34.359Z,100.00
2019-02-07T03:52:42.951Z,100.00
2019-02-07T03:53:52.152Z,100.00
2019-02-07T03:56:52.453Z,100.00
2019-02-07T03:58:02.218Z,100.00
2019-02-07T03:59:09.925Z,100.00
2019-02-07T04:01:52.700Z,100.00
2019-02-07T04:03:04.051Z,100.00
2019-02-07T04:04:14.459Z,100.00
2019-02-07T04:05:23.643Z,100.00
2019-02-07T04:06:29.387Z,100.00
2019-02-07T04:07:38.576Z,100.00
2019-02-07T04:08:48.875Z,100.00
2019-02-07T04:09:58.069Z,100.00
2019-02-07T04:11:09.187Z,100.00
2019-02-07T04:12:19.575Z,100.00
2019-02-07T04:25:30.243Z,95.25
2019-02-07T04:28:13.576Z,91.90
2019-02-07T04:29:19.344Z,90.74
2019-02-07T04:30:35.035Z,89.46
2019-02-07T04:31:41.742Z,88.27
2019-02-07T04:34:27.603Z,87.08
2019-02-07T04:47:51.294Z,84.57
2019-02-07T04:49:07.964Z,85.37
2019-02-07T04:50:28.569Z,85.71
2019-02-07T04:51:39.888Z,85.56
2019-02-07T04:52:50.199Z,86.01
2019-02-07T04:53:56.005Z,87.10
2019-02-07T04:55:02.705Z,87.57
2019-02-07T04:56:13.439Z,87.46
2019-02-07T04:57:30.898Z,87.43
2019-02-07T05:00:17.841Z,87.80
2019-02-07T05:01:24.086Z,87.72
2019-02-07T05:02:35.272Z,85.87
2019-02-07T05:03:44.007Z,85.26
2019-02-07T05:04:53.358Z,85.19
2019-02-07T05:06:04.672Z,84.81
2019-02-07T05:07:11.519Z,86.21
2019-02-07T05:10:00.621Z,86.46
2019-02-07T05:11:23.138Z,86.39
2019-02-07T05:12:28.918Z,86.37
2019-02-07T05:13:41.205Z,86.15
2019-02-07T05:15:03.781Z,86.74
2019-02-07T05:16:10.355Z,86.85
2019-02-07T05:17:19.545Z,87.57
2019-02-07T05:18:40.159Z,88.35
2019-02-07T05:19:51.747Z,88.34
2019-02-07T05:33:09.965Z,89.47
2019-02-07T05:34:19.375Z,88.55
2019-02-07T05:35:30.802Z,87.30
2019-02-07T05:36:36.558Z,86.90
2019-02-07T05:39:42.586Z,86.82
2019-02-07T05:41:13.180Z,86.53
2019-02-07T05:43:58.976Z,85.21
2019-02-07T05:45:06.349Z,84.22
2019-02-07T05:46:11.790Z,84.30
2019-02-07T05:47:22.995Z,83.54
2019-02-07T05:50:08.457Z,83.90
2019-02-07T05:51:14.258Z,84.19
2019-02-07T05:52:25.752Z,84.13
2019-02-07T05:53:35.661Z,83.66
2019-02-07T05:54:56.291Z,82.67
2019-02-07T05:56:05.018Z,81.33
2019-02-07T05:57:11.176Z,81.70
2019-02-07T06:10:46.467Z,81.57
2019-02-07T06:24:07.341Z,75.51
2019-02-07T06:25:18.897Z,75.83
2019-02-07T06:26:33.274Z,76.37
2019-02-07T06:27:41.580Z,76.06
2019-02-07T06:28:50.017Z,75.95
2019-02-07T06:42:11.554Z,76.54
2019-02-07T06:43:17.734Z,76.84
2019-02-07T06:44:24.077Z,76.17
2019-02-07T06:45:31.821Z,77.08
2019-02-07T06:46:38.578Z,77.63
2019-02-07T06:49:18.053Z,79.19
2019-02-07T06:50:26.299Z,79.23
2019-02-07T06:51:34.058Z,79.75
2019-02-07T06:52:41.359Z,80.29
2019-02-07T06:53:52.681Z,80.14
2019-02-07T06:55:04.275Z,80.71
2019-02-07T06:56:11.970Z,80.61
2019-02-07T06:57:21.849Z,80.57
2019-02-07T07:00:05.748Z,82.20
2019-02-07T07:01:14.129Z,82.71
2019-02-07T07:02:30.622Z,82.51
2019-02-07T07:03:36.373Z,81.59
2019-02-07T07:04:48.394Z,82.64
2019-02-07T07:06:08.477Z,82.59
2019-02-07T07:09:11.596Z,82.98
2019-02-07T07:10:46.079Z,83.64
2019-02-07T07:12:16.082Z,84.47
2019-02-07T07:13:24.351Z,84.55
2019-02-07T07:14:33.571Z,85.25
2019-02-07T07:15:44.972Z,85.43
2019-02-07T07:29:05.942Z,84.97
2019-02-07T07:30:15.451Z,85.00
2019-02-07T07:31:26.411Z,85.15
2019-02-07T07:34:09.995Z,84.11
2019-02-07T07:35:21.866Z,82.70
2019-02-07T07:48:46.209Z,83.34
2019-02-07T07:49:55.033Z,83.11
2019-02-07T07:51:01.300Z,84.31
2019-02-07T08:14:53.544Z,81.29
2019-02-07T08:16:05.035Z,81.10
2019-02-07T08:17:14.692Z,80.42
2019-02-07T08:18:25.495Z,80.52
2019-02-07T08:21:12.802Z,80.56
2019-02-07T08:22:19.499Z,80.36
2019-02-07T08:25:06.252Z,80.73
2019-02-07T08:26:25.452Z,78.93
2019-02-07T08:27:31.790Z,79.76
2019-02-07T08:28:57.420Z,79.38
2019-02-07T08:30:14.162Z,78.48
2019-02-07T08:31:20.383Z,78.24
2019-02-07T08:32:44.880Z,77.74
2019-02-07T08:46:05.858Z,77.65
2019-02-07T08:47:14.583Z,77.72
2019-02-07T08:48:23.047Z,77.35
2019-02-07T08:49:45.229Z,77.62
2019-02-07T08:50:52.903Z,77.60
2019-02-07T08:51:59.333Z,78.03
2019-02-07T08:53:05.194Z,77.96
2019-02-07T08:55:56.906Z,77.92
2019-02-07T08:57:05.230Z,76.25
2019-02-07T08:58:12.499Z,75.19
2019-02-07T08:59:28.245Z,75.49
2019-02-07T09:00:36.994Z,75.86
2019-02-07T09:01:44.138Z,76.64
2019-02-07T09:15:08.827Z,77.07
2019-02-07T09:16:27.368Z,77.07
2019-02-07T09:17:47.708Z,76.90
2019-02-07T09:19:03.365Z,77.37
2019-02-07T09:20:23.115Z,76.78
2019-02-07T09:21:29.798Z,77.14
2019-02-07T09:22:55.976Z,77.12
2019-02-07T09:24:02.513Z,76.64
2019-02-07T09:25:25.357Z,76.40
2019-02-07T09:26:36.572Z,75.20
2019-02-07T09:27:42.761Z,75.53
2019-02-07T09:29:05.262Z,76.20
2019-02-07T09:30:17.217Z,75.44
2019-02-07T09:31:22.963Z,76.04
2019-02-07T09:44:48.748Z,74.00
2019-02-07T09:46:04.426Z,73.51
2019-02-07T09:47:11.059Z,73.22
2019-02-07T09:48:32.732Z,74.24
2019-02-07T09:49:48.430Z,73.78
2019-02-07T09:50:53.927Z,74.73
2019-02-07T09:52:02.207Z,73.17
2019-02-07T09:54:59.325Z,72.86
2019-02-07T09:57:53.782Z,72.10
2019-02-07T09:59:17.004Z,73.82
2019-02-07T10:00:25.292Z,72.92
2019-02-07T10:01:31.005Z,72.03
2019-02-07T10:02:38.968Z,71.16
2019-02-07T10:03:50.260Z,71.34
2019-02-07T10:05:00.512Z,71.73
2019-02-07T10:18:20.333Z,70.30
2019-02-07T10:19:31.704Z,70.60
2019-02-07T10:32:54.975Z,71.61
2019-02-07T10:35:44.985Z,70.90
2019-02-07T10:36:56.088Z,71.15
2019-02-07T10:38:02.632Z,71.13
2019-02-07T10:39:14.109Z,71.21
2019-02-07T10:40:34.393Z,70.33
2019-02-07T10:41:43.983Z,69.93
2019-02-07T10:42:54.176Z,70.53
2019-02-07T10:44:00.409Z,72.10
2019-02-07T10:45:05.428Z,70.08
2019-02-07T10:46:23.927Z,69.95
2019-02-07T10:49:05.689Z,70.00
2019-02-07T10:50:28.067Z,69.17
2019-02-07T10:51:34.127Z,69.09
2019-02-07T10:52:45.435Z,69.33
2019-02-07T10:53:53.600Z,69.06
2019-02-07T11:07:15.007Z,65.72
2019-02-07T11:08:33.115Z,64.82
2019-02-07T11:09:44.344Z,63.94
2019-02-07T11:10:55.664Z,63.83
2019-02-07T11:12:01.050Z,63.32
2019-02-07T11:14:51.288Z,63.21
2019-02-07T11:16:03.056Z,63.71
2019-02-07T11:17:23.787Z,63.44
2019-02-07T11:18:33.512Z,62.93
2019-02-07T11:19:41.764Z,62.55
2019-02-07T11:20:48.028Z,62.96
2019-02-07T11:23:33.438Z,63.07
2019-02-07T11:26:17.433Z,63.54
2019-02-07T11:29:05.308Z,63.97
2019-02-07T11:42:22.226Z,62.55
2019-02-07T11:45:03.817Z,61.97
2019-02-07T11:46:15.108Z,61.64
2019-02-07T11:47:26.070Z,61.45
2019-02-07T11:48:41.736Z,60.95
2019-02-07T11:49:49.643Z,61.09
2019-02-07T11:51:01.879Z,60.23
2019-02-07T11:52:12.356Z,59.66
2019-02-07T11:53:38.979Z,59.15
2019-02-07T11:54:45.746Z,60.56
2019-02-07T11:57:30.659Z,59.98
2019-02-07T12:10:50.546Z,60.65
2019-02-07T12:11:56.858Z,59.87
2019-02-07T12:13:09.030Z,60.13
2019-02-07T12:14:20.455Z,60.10
2019-02-07T12:15:30.707Z,59.64
2019-02-07T12:16:41.857Z,60.77
2019-02-07T12:19:40.466Z,60.46
2019-02-07T12:20:49.759Z,60.19
2019-02-07T12:22:00.088Z,59.64
2019-02-07T12:23:06.899Z,59.67
2019-02-07T12:24:17.007Z,59.89
2019-02-07T12:25:28.431Z,60.61
2019-02-07T12:26:34.687Z,60.79
2019-02-07T12:27:44.928Z,60.14
2019-02-07T12:28:54.635Z,60.66
2019-02-07T12:30:05.529Z,60.68
2019-02-07T12:31:11.017Z,61.13
2019-02-07T12:34:06.856Z,61.68
2019-02-07T12:35:28.359Z,61.58
2019-02-07T12:36:36.484Z,62.64
2019-02-07T12:37:57.943Z,62.48
2019-02-07T12:39:05.910Z,62.17
2019-02-07T12:40:16.359Z,62.63
2019-02-07T12:43:04.226Z,62.67
2019-02-07T12:44:16.517Z,63.01
2019-02-07T12:45:38.153Z,63.21
2019-02-07T12:46:49.701Z,63.78
2019-02-07T12:47:55.490Z,62.93
2019-02-07T12:49:04.249Z,63.07
2019-02-07T12:50:27.994Z,64.07
2019-02-07T12:51:35.516Z,63.92
2019-02-07T12:52:41.268Z,63.61
2019-02-07T12:55:35.503Z,63.44
2019-02-07T12:57:04.554Z,64.51
2019-02-07T12:58:12.697Z,65.08
2019-02-07T12:59:23.665Z,64.45
2019-02-07T13:00:34.672Z,64.89
2019-02-07T13:03:25.292Z,65.82
2019-02-07T13:04:36.154Z,64.56
2019-02-07T13:05:43.698Z,65.36
2019-02-07T13:07:06.928Z,65.75
2019-02-07T13:09:50.508Z,65.70
2019-02-07T13:12:36.478Z,65.49
2019-02-07T13:13:52.140Z,64.92
2019-02-07T13:14:57.825Z,65.31
2019-02-07T13:16:13.926Z,64.54
2019-02-07T13:29:32.068Z,67.34
2019-02-07T13:30:41.044Z,67.26
2019-02-07T13:31:46.974Z,68.03
2019-02-07T13:32:52.784Z,67.53
2019-02-07T13:34:04.376Z,67.20
2019-02-07T13:36:44.642Z,66.57
2019-02-07T13:39:29.431Z,66.20
2019-02-07T13:40:49.722Z,65.92
2019-02-07T13:42:10.793Z,65.71
2019-02-07T13:43:22.831Z,65.87
2019-02-07T13:44:33.428Z,66.79
2019-02-07T13:45:45.927Z,67.66
2019-02-07T13:46:55.632Z,68.29
2019-02-07T13:48:07.358Z,67.50
2019-02-07T13:49:13.939Z,68.29
2019-02-07T13:50:22.260Z,68.77
2019-02-07T13:51:32.552Z,68.49
2019-02-07T13:54:12.939Z,69.48
2019-02-07T13:57:04.597Z,69.58
2019-02-07T13:59:48.621Z,70.03
2019-02-07T14:00:59.535Z,68.70
2019-02-07T14:02:07.670Z,68.55
2019-02-07T14:03:17.665Z,68.85
2019-02-07T14:04:28.630Z,69.35
2019-02-07T14:05:35.178Z,68.79
2019-02-07T14:06:50.880Z,67.69
2019-02-07T14:08:02.388Z,68.01
2019-02-07T14:09:13.125Z,68.55
2019-02-07T14:12:08.818Z,68.69
2019-02-07T14:13:42.059Z,67.76
2019-02-07T14:15:04.765Z,68.44
2019-02-07T14:16:26.634Z,69.54
2019-02-07T14:19:30.027Z,69.91
2019-02-07T14:20:40.856Z,70.90
2019-02-07T14:34:00.790Z,73.62
2019-02-07T14:35:26.578Z,73.52
2019-02-07T14:38:11.492Z,75.84
2019-02-07T14:39:21.662Z,76.30
2019-02-07T14:40:43.974Z,76.36
2019-02-07T14:41:54.392Z,76.29
2019-02-07T14:43:03.174Z,76.20
2019-02-07T14:44:12.128Z,75.85
2019-02-07T14:45:18.945Z,76.21
2019-02-07T14:46:28.258Z,76.62
2019-02-07T14:47:34.260Z,77.34
2019-02-07T14:48:40.320Z,77.69
2019-02-07T14:49:46.354Z,77.78
2019-02-07T14:50:51.657Z,78.48
2019-02-07T14:51:57.439Z,78.47
2019-02-07T14:53:03.548Z,78.78
2019-02-07T14:54:09.269Z,79.43
2019-02-07T14:55:14.524Z,79.02
2019-02-07T14:56:20.528Z,78.71
2019-02-07T14:57:26.538Z,78.64
2019-02-07T14:58:32.594Z,80.08
2019-02-07T14:59:37.897Z,81.10
2019-02-07T15:00:43.888Z,80.91
2019-02-07T15:01:50.434Z,81.11
2019-02-07T15:02:56.468Z,81.27
2019-02-07T15:04:02.128Z,81.97
2019-02-07T15:05:07.427Z,82.55
2019-02-07T15:06:13.450Z,82.87
2019-02-07T15:07:19.403Z,83.65
2019-02-07T15:08:25.039Z,83.87
2019-02-07T15:09:31.011Z,83.36
2019-02-07T15:10:37.021Z,83.63
2019-02-07T15:11:43.714Z,84.17
2019-02-07T15:12:49.957Z,84.32
2019-02-07T15:13:56.011Z,84.53
2019-02-07T15:15:02.008Z,84.92
2019-02-07T15:16:07.269Z,85.27
2019-02-07T15:17:13.315Z,85.66
2019-02-07T15:18:19.287Z,85.73
2019-02-07T15:19:25.279Z,85.88
2019-02-07T15:20:32.037Z,85.97
2019-02-07T15:21:38.071Z,86.45
2019-02-07T15:22:43.894Z,86.79
2019-02-07T15:23:49.912Z,86.68
2019-02-07T15:24:55.958Z,86.75
2019-02-07T15:26:01.988Z,86.69
2019-02-07T15:27:08.040Z,86.46
2019-02-07T15:28:13.641Z,86.15
2019-02-07T15:29:19.367Z,86.03
2019-02-07T15:30:24.643Z,86.65
2019-02-07T15:31:31.027Z,86.75
2019-02-07T15:32:37.963Z,86.39
2019-02-07T15:33:44.314Z,86.51
2019-02-07T15:34:50.313Z,86.30
2019-02-07T15:35:56.363Z,86.00
2019-02-07T15:37:02.292Z,86.12
2019-02-07T15:38:07.574Z,86.54
2019-02-07T15:39:12.697Z,86.65
2019-02-07T15:40:17.985Z,87.16
2019-02-07T15:41:23.671Z,87.13
2019-02-07T15:42:29.675Z,87.34
2019-02-07T15:43:35.315Z,87.31
2019-02-07T15:44:41.330Z,87.42
2019-02-07T15:45:49.288Z,87.58
2019-02-07T15:46:54.908Z,87.76
2019-02-07T15:48:00.546Z,87.94
2019-02-07T15:49:05.928Z,88.02
2019-02-07T15:50:18.435Z,87.95
2019-02-07T15:51:24.059Z,88.03
2019-02-07T15:52:29.705Z,87.90
2019-02-07T15:53:35.650Z,88.09
2019-02-07T15:54:42.485Z,87.95
2019-02-07T15:55:48.997Z,88.09
2019-02-07T15:56:54.641Z,88.10
2019-02-07T15:57:59.916Z,88.04
2019-02-07T15:59:10.485Z,88.16
2019-02-07T16:00:35.771Z,88.24
2019-02-07T16:01:41.188Z,88.71
2019-02-07T16:02:47.062Z,88.67
2019-02-07T16:04:07.733Z,88.79
2019-02-07T16:05:13.099Z,88.85
2019-02-07T16:06:19.071Z,89.62
2019-02-07T16:07:25.128Z,89.45
2019-02-07T16:08:30.811Z,89.21
2019-02-07T16:09:36.595Z,89.33
2019-02-07T16:10:42.763Z,89.63
2019-02-07T16:11:48.471Z,89.75
2019-02-07T16:12:54.425Z,90.04
2019-02-07T16:14:00.426Z,89.87
2019-02-07T16:15:05.761Z,89.87
2019-02-07T16:16:12.518Z,90.10
2019-02-07T16:17:19.034Z,90.23
2019-02-07T16:18:24.732Z,90.12
2019-02-07T16:19:30.471Z,89.99
2019-02-07T16:20:35.829Z,90.01
2019-02-07T16:21:41.668Z,90.53
2019-02-07T16:22:47.317Z,91.14
2019-02-07T16:23:53.370Z,91.07
2019-02-07T16:24:59.430Z,90.76
2019-02-07T16:26:06.013Z,90.64
2019-02-07T16:27:12.095Z,90.48
2019-02-07T16:28:20.294Z,90.66
2019-02-07T16:29:24.108Z,90.70
2019-02-07T16:30:30.635Z,90.82
2019-02-07T16:31:34.995Z,90.84
2019-02-07T16:32:40.438Z,91.26
2019-02-07T16:33:46.137Z,91.51
2019-02-07T16:34:51.889Z,91.60
2019-02-07T16:35:57.983Z,91.58
2019-02-07T16:37:03.347Z,91.67
2019-02-07T16:38:08.669Z,91.86
2019-02-07T16:39:13.923Z,91.86
2019-02-07T16:40:21.775Z,91.85
2019-02-07T16:41:24.975Z,91.83
2019-02-07T16:42:31.069Z,91.99
2019-02-07T16:43:36.847Z,92.15
2019-02-07T16:44:42.854Z,92.21
2019-02-07T16:45:48.583Z,92.93
2019-02-07T16:46:55.531Z,93.05
2019-02-07T16:48:01.261Z,92.50
2019-02-07T16:49:06.874Z,92.11
2019-02-07T16:50:12.968Z,92.20
2019-02-07T16:51:18.247Z,91.83
2019-02-07T16:52:23.622Z,91.47
2019-02-07T16:53:29.012Z,92.45
2019-02-07T16:54:35.399Z,92.60
2019-02-07T16:55:41.370Z,92.59
2019-02-07T16:56:47.430Z,92.69
2019-02-07T16:57:53.077Z,92.43
2019-02-07T16:58:59.474Z,92.75
2019-02-07T17:00:16.182Z,92.74
2019-02-07T17:01:21.445Z,92.67
2019-02-07T17:02:27.053Z,92.95
2019-02-07T17:03:32.723Z,92.99
2019-02-07T17:04:38.723Z,93.14
2019-02-07T17:05:44.461Z,93.24
2019-02-07T17:06:50.438Z,93.40
2019-02-07T17:07:56.051Z,93.81
2019-02-07T17:09:02.037Z,93.65
2019-02-07T17:10:10.868Z,93.49
2019-02-07T17:11:16.218Z,93.37
2019-02-07T17:12:22.133Z,93.43
2019-02-07T17:13:28.242Z,93.59
2019-02-07T17:14:33.533Z,93.70
2019-02-07T17:15:39.191Z,93.80
2019-02-07T17:16:45.124Z,93.87
2019-02-07T17:17:50.832Z,93.95
2019-02-07T17:18:56.420Z,94.45
2019-02-07T17:20:02.059Z,93.97
2019-02-07T17:21:12.081Z,94.07
2019-02-07T17:22:13.485Z,93.83
2019-02-07T17:23:19.481Z,94.12
2019-02-07T17:24:25.549Z,94.92
2019-02-07T17:25:30.903Z,94.41
2019-02-07T17:26:36.941Z,94.22
2019-02-07T17:27:42.873Z,94.71
2019-02-07T17:28:48.818Z,95.17
2019-02-07T17:29:54.464Z,94.83
2019-02-07T17:31:00.808Z,94.33
2019-02-07T17:32:06.905Z,94.21
2019-02-07T17:33:12.534Z,94.00
2019-02-07T17:34:18.497Z,94.08
2019-02-07T17:35:24.192Z,94.10
2019-02-07T17:36:29.890Z,93.51
2019-02-07T17:37:35.863Z,93.91
2019-02-07T17:38:41.827Z,94.07
2019-02-07T17:39:48.241Z,94.45
2019-02-07T17:40:54.137Z,94.70
2019-02-07T17:42:00.779Z,94.39
2019-02-07T17:43:06.931Z,94.41
2019-02-07T17:44:12.159Z,95.38
2019-02-07T17:45:18.274Z,94.86
2019-02-07T17:46:24.821Z,94.94
2019-02-07T17:47:31.534Z,94.58
2019-02-07T17:48:37.272Z,94.46
2019-02-07T17:49:42.881Z,94.54
2019-02-07T17:50:48.550Z,94.16
2019-02-07T17:51:54.210Z,94.75
2019-02-07T17:52:59.502Z,94.50
2019-02-07T17:54:04.856Z,94.53
2019-02-07T17:55:10.903Z,94.79
2019-02-07T17:56:19.024Z,94.61
2019-02-07T17:57:25.220Z,94.54
2019-02-07T17:58:31.229Z,94.65
2019-02-07T17:59:37.334Z,94.44
2019-02-07T18:00:48.658Z,94.45
2019-02-07T18:01:54.627Z,94.86
2019-02-07T18:03:01.038Z,94.71
2019-02-07T18:04:07.183Z,94.56
2019-02-07T18:05:12.822Z,94.16
2019-02-07T18:06:18.479Z,93.96
2019-02-07T18:07:24.167Z,94.30
2019-02-07T18:08:29.732Z,94.86
2019-02-07T18:09:35.360Z,94.41
2019-02-07T18:10:41.085Z,94.21
2019-02-07T18:11:47.085Z,94.06
2019-02-07T18:12:52.497Z,94.13
2019-02-07T18:13:58.462Z,93.88
2019-02-07T18:15:03.751Z,93.95
2019-02-07T18:16:09.497Z,94.41
2019-02-07T18:17:15.167Z,94.69
2019-02-07T18:18:21.960Z,94.47
2019-02-07T18:19:27.904Z,94.36
2019-02-07T18:20:33.282Z,94.25
2019-02-07T18:21:42.548Z,94.30
2019-02-07T18:22:48.608Z,94.71
2019-02-07T18:23:54.585Z,94.97
2019-02-07T18:25:00.551Z,94.48
2019-02-07T18:26:06.562Z,94.41
2019-02-07T18:27:12.405Z,94.60
2019-02-07T18:28:18.311Z,94.20
2019-02-07T18:29:23.902Z,94.52
2019-02-07T18:30:29.552Z,94.43
2019-02-07T18:31:35.561Z,94.20
2019-02-07T18:32:40.778Z,94.30
2019-02-07T18:33:46.950Z,94.57
2019-02-07T18:34:52.926Z,94.64
2019-02-07T18:35:58.954Z,94.50
2019-02-07T18:37:04.295Z,94.39
2019-02-07T18:38:10.677Z,94.22
2019-02-07T18:39:16.624Z,94.22
2019-02-07T18:40:32.554Z,94.00
2019-02-07T18:41:38.640Z,93.70
2019-02-07T18:42:44.604Z,93.44
2019-02-07T18:43:50.528Z,93.66
2019-02-07T18:44:57.014Z,93.75
2019-02-07T18:46:03.481Z,93.68
2019-02-07T18:47:09.895Z,93.79
2019-02-07T18:48:15.855Z,93.71
2019-02-07T18:49:21.885Z,93.62
2019-02-07T18:50:27.298Z,93.43
2019-02-07T18:51:44.949Z,93.78
2019-02-07T18:52:40.407Z,93.68
2019-02-07T18:53:46.338Z,93.80
2019-02-07T18:54:52.385Z,94.48
2019-02-07T18:55:58.379Z,94.53
2019-02-07T18:57:04.925Z,94.96
2019-02-07T18:58:10.939Z,94.87
2019-02-07T18:59:16.866Z,94.62
2019-02-07T19:00:37.992Z,95.00
2019-02-07T19:01:44.095Z,95.85
2019-02-07T19:02:49.793Z,95.55
2019-02-07T19:03:55.758Z,95.26
2019-02-07T19:05:02.267Z,94.87
2019-02-07T19:06:07.549Z,95.12
2019-02-07T19:07:13.487Z,95.40
2019-02-07T19:08:19.123Z,95.54
2019-02-07T19:09:25.125Z,95.91
2019-02-07T19:10:31.140Z,95.97
2019-02-07T19:11:37.251Z,96.10
2019-02-07T19:12:42.947Z,95.95
2019-02-07T19:13:48.932Z,95.77
2019-02-07T19:14:54.562Z,95.97
2019-02-07T19:15:59.854Z,95.92
2019-02-07T19:17:05.508Z,96.04
2019-02-07T19:18:11.591Z,95.88
2019-02-07T19:19:17.235Z,95.44
2019-02-07T19:20:23.266Z,95.50
2019-02-07T19:21:30.083Z,95.68
2019-02-07T19:22:36.094Z,95.92
2019-02-07T19:23:42.061Z,96.21
2019-02-07T19:24:47.736Z,96.30
2019-02-07T19:25:53.699Z,96.19
2019-02-07T19:26:59.750Z,96.16
2019-02-07T19:28:05.120Z,96.25
2019-02-07T19:29:10.406Z,96.29
2019-02-07T19:30:18.362Z,96.40
2019-02-07T19:31:24.103Z,96.23
2019-02-07T19:32:30.386Z,96.21
2019-02-07T19:33:36.924Z,96.27
2019-02-07T19:34:42.893Z,95.83
2019-02-07T19:35:48.924Z,95.73
2019-02-07T19:36:54.968Z,95.59
2019-02-07T19:38:00.922Z,95.63
2019-02-07T19:39:06.250Z,95.43
2019-02-07T19:40:12.829Z,95.34
2019-02-07T19:41:18.819Z,95.06
2019-02-07T19:42:24.829Z,95.11
2019-02-07T19:43:30.797Z,94.91
2019-02-07T19:44:36.425Z,95.04
2019-02-07T19:45:42.387Z,94.88
2019-02-07T19:46:48.444Z,94.82
2019-02-07T19:47:53.718Z,94.80
2019-02-07T19:49:02.682Z,94.95
2019-02-07T19:50:08.562Z,94.87
2019-02-07T19:51:15.824Z,95.18
2019-02-07T19:52:22.375Z,95.27
2019-02-07T19:53:28.334Z,95.35
2019-02-07T19:54:34.298Z,95.12
2019-02-07T19:55:40.294Z,94.89
2019-02-07T19:56:46.298Z,94.73
2019-02-07T19:57:52.043Z,94.52
2019-02-07T19:58:57.703Z,94.69
2019-02-07T20:00:03.906Z,94.89
2019-02-07T20:01:09.539Z,94.38
2019-02-07T20:02:15.511Z,94.33
2019-02-07T20:03:21.129Z,94.42
2019-02-07T20:04:26.701Z,93.96